Time;durP1;ratioP1;P1;durP2;ratioP2;P2;SDS_P1;SDS_P2;PMS_P1;PMS_P2;Temp;Humidity;BMP_temperature;BMP_pressure;BME280_temperature;BME280_humidity;BME280_pressure;Samples;Min_cycle;Max_cycle;Signal;HPM_P1;HPM_P2
2024/02/23 00:00:37;;;;;;;0.52;0.20;;;;;;;;;;4998127;28;20030;-82
2024/02/23 00:03:03;;;;;;;0.00;0.00;;;;;;;;;;5012822;28;20380;-82
2024/02/23 00:05:29;;;;;;;0.10;0.00;;;;;;;;;;5001942;28;20041;-82
2024/02/23 00:07:55;;;;;;;0.00;0.00;;;;;;;;;;5013483;28;20042;-82
2024/02/23 00:10:21;;;;;;;0.10;0.00;;;;;;;;;;5012685;28;20116;-82
2024/02/23 00:12:49;;;;;;;0.35;0.08;;;;;;;;;;5013211;28;20058;-82
2024/02/23 00:15:15;;;;;;;5.72;0.40;;;;;;;;;;5011955;28;20101;-82
2024/02/23 00:17:41;;;;;;;6.70;0.30;;;;;;;;;;5011049;28;20125;-82
2024/02/23 00:20:11;;;;;;;0.10;0.03;;;;;;;;;;5013714;28;20033;-82
2024/02/23 00:22:37;;;;;;;0.13;0.00;;;;;;;;;;5012194;28;20038;-83
2024/02/23 00:25:03;;;;;;;0.00;0.00;;;;;;;;;;5000980;28;20030;-82
2024/02/23 00:27:29;;;;;;;0.05;0.00;;;;;;;;;;5012413;28;20079;-82
2024/02/23 00:29:55;;;;;;;0.00;0.00;;;;;;;;;;5012425;28;20029;-82
2024/02/23 00:32:21;;;;;;;2.47;0.40;;;;;;;;;;5012814;28;20065;-82
2024/02/23 00:34:47;;;;;;;0.00;0.00;;;;;;;;;;5011619;28;20022;-82
2024/02/23 00:37:13;;;;;;;0.98;0.17;;;;;;;;;;5010836;28;20042;-82
2024/02/23 00:39:39;;;;;;;0.80;0.03;;;;;;;;;;5004162;28;20026;-82
2024/02/23 00:42:05;;;;;;;0.00;0.00;;;;;;;;;;4998174;28;20112;-82
2024/02/23 00:44:31;;;;;;;0.00;0.00;;;;;;;;;;5010781;28;20038;-80
2024/02/23 00:47:01;;;;;;;0.00;0.00;;;;;;;;;;4997760;28;20037;-80
2024/02/23 00:49:27;;;;;;;0.08;0.00;;;;;;;;;;5006058;28;20033;-82
2024/02/23 00:51:53;;;;;;;0.00;0.00;;;;;;;;;;5012090;28;20034;-82
2024/02/23 00:54:19;;;;;;;0.22;0.00;;;;;;;;;;5011762;28;20163;-82
2024/02/23 00:56:45;;;;;;;0.32;0.17;;;;;;;;;;5012267;28;20033;-82
2024/02/23 00:59:11;;;;;;;0.10;0.00;;;;;;;;;;5006175;28;20120;-82
2024/02/23 01:01:37;;;;;;;0.00;0.00;;;;;;;;;;5011949;28;20022;-81
2024/02/23 01:04:03;;;;;;;0.20;0.00;;;;;;;;;;5010035;28;20503;-81
2024/02/23 01:06:29;;;;;;;0.05;0.05;;;;;;;;;;5012089;28;20034;-82
2024/02/23 01:08:55;;;;;;;1.00;0.03;;;;;;;;;;5011844;28;20038;-81
2024/02/23 01:11:21;;;;;;;1.35;0.43;;;;;;;;;;5012369;28;20064;-81
2024/02/23 01:13:47;;;;;;;2.17;0.00;;;;;;;;;;5011049;28;20085;-82
2024/02/23 01:16:13;;;;;;;0.10;0.00;;;;;;;;;;5012002;28;20036;-81
2024/02/23 01:18:39;;;;;;;0.30;0.10;;;;;;;;;;5011526;28;20037;-81
2024/02/23 01:21:05;;;;;;;1.20;0.22;;;;;;;;;;5012257;28;20069;-81
2024/02/23 01:23:31;;;;;;;0.47;0.10;;;;;;;;;;5011422;28;20052;-82
2024/02/23 01:25:59;;;;;;;1.48;0.20;;;;;;;;;;5011877;28;20033;-82
2024/02/23 01:28:25;;;;;;;0.40;0.10;;;;;;;;;;5012296;28;20442;-81
2024/02/23 01:30:51;;;;;;;0.32;0.00;;;;;;;;;;4992428;28;20207;-81
2024/02/23 01:33:17;;;;;;;0.00;0.00;;;;;;;;;;4992741;28;20043;-79
2024/02/23 01:35:43;;;;;;;0.32;0.00;;;;;;;;;;5009661;28;20034;-79
2024/02/23 01:38:09;;;;;;;2.72;0.00;;;;;;;;;;5009349;28;20656;-80
2024/02/23 01:40:35;;;;;;;0.00;0.00;;;;;;;;;;5005227;28;20080;-80
2024/02/23 01:43:02;;;;;;;3.95;0.28;;;;;;;;;;4992703;28;20726;-79
2024/02/23 01:45:28;;;;;;;0.30;0.00;;;;;;;;;;5005341;28;20057;-79
2024/02/23 01:47:54;;;;;;;0.00;0.00;;;;;;;;;;5012448;28;20041;-79
2024/02/23 01:50:20;;;;;;;0.00;0.00;;;;;;;;;;5010088;28;20038;-79
2024/02/23 01:52:46;;;;;;;0.00;0.00;;;;;;;;;;5011045;28;20030;-79
2024/02/23 01:55:12;;;;;;;0.08;0.00;;;;;;;;;;5010243;28;20029;-79
2024/02/23 01:57:39;;;;;;;0.00;0.00;;;;;;;;;;5011868;28;20036;-79
2024/02/23 02:00:06;;;;;;;0.00;0.00;;;;;;;;;;5011874;28;20041;-79
2024/02/23 02:02:32;;;;;;;0.00;0.00;;;;;;;;;;5012795;28;20045;-79
2024/02/23 02:04:58;;;;;;;0.90;0.20;;;;;;;;;;5011117;28;20084;-81
2024/02/23 02:07:25;;;;;;;0.13;0.03;;;;;;;;;;4996772;28;20042;-82
2024/02/23 02:09:51;;;;;;;0.32;0.20;;;;;;;;;;4991446;28;20061;-81
2024/02/23 02:12:27;;;;;;;0.00;0.00;;;;;;;;;;5011494;28;20659;-81
2024/02/23 02:14:53;;;;;;;0.08;0.05;;;;;;;;;;5011465;28;20076;-81
2024/02/23 02:17:19;;;;;;;0.63;0.00;;;;;;;;;;5009387;28;20038;-81
2024/02/23 02:19:48;;;;;;;0.00;0.00;;;;;;;;;;5011567;28;20479;-81
2024/02/23 02:22:14;;;;;;;0.32;0.00;;;;;;;;;;4993499;28;20034;-81
2024/02/23 02:24:43;;;;;;;0.82;0.10;;;;;;;;;;4990979;28;20081;-81
2024/02/23 02:27:09;;;;;;;0.25;0.00;;;;;;;;;;4991767;28;20030;-81
2024/02/23 02:29:36;;;;;;;5.68;0.20;;;;;;;;;;5006604;28;20041;-81
2024/02/23 02:32:02;;;;;;;0.08;0.03;;;;;;;;;;5008907;28;20037;-81
2024/02/23 02:34:29;;;;;;;0.00;0.00;;;;;;;;;;5010943;28;20029;-81
2024/02/23 02:36:55;;;;;;;0.70;0.10;;;;;;;;;;5010417;28;20018;-81
2024/02/23 02:39:21;;;;;;;0.20;0.10;;;;;;;;;;5010367;28;20030;-81
2024/02/23 02:41:48;;;;;;;0.20;0.00;;;;;;;;;;5011445;28;20057;-81
2024/02/23 02:44:14;;;;;;;0.85;0.10;;;;;;;;;;5009952;28;20081;-81
2024/02/23 02:46:41;;;;;;;1.13;0.32;;;;;;;;;;5010243;28;20510;-80
2024/02/23 02:49:07;;;;;;;0.73;0.30;;;;;;;;;;4997055;28;20046;-81
2024/02/23 02:51:33;;;;;;;0.00;0.00;;;;;;;;;;4999336;28;20392;-79
2024/02/23 02:53:59;;;;;;;0.00;0.00;;;;;;;;;;5011246;28;20038;-79
2024/02/23 02:56:25;;;;;;;0.00;0.00;;;;;;;;;;5010560;28;20030;-79
2024/02/23 02:58:51;;;;;;;0.00;0.00;;;;;;;;;;5011608;28;20030;-79
2024/02/23 03:01:17;;;;;;;0.00;0.00;;;;;;;;;;5012930;28;20030;-79
2024/02/23 03:03:43;;;;;;;0.10;0.00;;;;;;;;;;5001810;28;20491;-79
2024/02/23 03:06:09;;;;;;;0.00;0.00;;;;;;;;;;4995287;28;20035;-79
2024/02/23 03:08:35;;;;;;;0.10;0.00;;;;;;;;;;5015130;28;20068;-79
2024/02/23 03:11:01;;;;;;;3.03;0.00;;;;;;;;;;5014924;28;20065;-79
2024/02/23 03:13:27;;;;;;;0.00;0.00;;;;;;;;;;5014502;28;20054;-79
2024/02/23 03:15:53;;;;;;;0.05;0.00;;;;;;;;;;5013708;28;20044;-81
2024/02/23 03:18:19;;;;;;;0.00;0.00;;;;;;;;;;5015142;28;20387;-81
2024/02/23 03:20:45;;;;;;;0.00;0.00;;;;;;;;;;5015442;28;20041;-80
2024/02/23 03:23:12;;;;;;;0.10;0.00;;;;;;;;;;5015399;28;20033;-81
2024/02/23 03:25:38;;;;;;;0.00;0.00;;;;;;;;;;5014628;28;20034;-81
2024/02/23 03:28:04;;;;;;;0.00;0.00;;;;;;;;;;5004089;28;20038;-81
2024/02/23 03:30:30;;;;;;;0.00;0.00;;;;;;;;;;5024338;28;20365;-81
2024/02/23 03:32:56;;;;;;;0.08;0.00;;;;;;;;;;5013918;28;20109;-81
2024/02/23 03:35:22;;;;;;;0.00;0.00;;;;;;;;;;5014288;28;20042;-81
2024/02/23 03:37:48;;;;;;;0.50;0.10;;;;;;;;;;5008750;28;20105;-79
2024/02/23 03:40:14;;;;;;;6.68;0.22;;;;;;;;;;4993035;28;20149;-79
2024/02/23 03:42:41;;;;;;;1.00;0.20;;;;;;;;;;4996914;28;20538;-79
2024/02/23 03:45:07;;;;;;;1.08;0.43;;;;;;;;;;5013440;28;20038;-81
2024/02/23 03:47:33;;;;;;;0.28;0.10;;;;;;;;;;4997151;28;20469;-80
2024/02/23 03:49:59;;;;;;;0.20;0.10;;;;;;;;;;4992887;28;20480;-81
2024/02/23 03:52:25;;;;;;;5.13;0.10;;;;;;;;;;4993085;28;20031;-81
2024/02/23 03:54:51;;;;;;;0.00;0.00;;;;;;;;;;4999660;28;20150;-81
2024/02/23 03:57:17;;;;;;;0.00;0.00;;;;;;;;;;5014285;28;20033;-79
2024/02/23 03:59:53;;;;;;;0.00;0.00;;;;;;;;;;5013726;28;20029;-79
2024/02/23 04:02:19;;;;;;;0.00;0.00;;;;;;;;;;5010311;28;20117;-81
2024/02/23 04:04:45;;;;;;;0.05;0.00;;;;;;;;;;5002552;28;20085;-82
2024/02/23 04:07:11;;;;;;;0.00;0.00;;;;;;;;;;5012375;28;20034;-81
2024/02/23 04:09:37;;;;;;;0.05;0.00;;;;;;;;;;5013517;28;20361;-81
2024/02/23 04:12:03;;;;;;;0.15;0.00;;;;;;;;;;5000226;28;20091;-81
2024/02/23 04:14:29;;;;;;;0.30;0.00;;;;;;;;;;4996228;28;20134;-81
2024/02/23 04:16:55;;;;;;;0.20;0.00;;;;;;;;;;5013665;28;20474;-81
2024/02/23 04:19:21;;;;;;;0.00;0.00;;;;;;;;;;5008687;28;20023;-81
2024/02/23 04:21:47;;;;;;;1.00;0.20;;;;;;;;;;4994407;28;20123;-81
2024/02/23 04:24:13;;;;;;;5.15;1.80;;;;;;;;;;4996891;28;20126;-81
2024/02/23 04:26:39;;;;;;;11.85;4.03;;;;;;;;;;5013659;28;20547;-81
2024/02/23 04:29:05;;;;;;;2.17;0.65;;;;;;;;;;5012864;28;20037;-81
2024/02/23 04:31:31;;;;;;;30.02;8.02;;;;;;;;;;5013748;28;20891;-81
2024/02/23 04:33:57;;;;;;;41.40;15.05;;;;;;;;;;5013982;28;20030;-81
2024/02/23 04:36:23;;;;;;;10.20;3.83;;;;;;;;;;5012831;28;20033;-81
2024/02/23 04:38:49;;;;;;;1.83;0.57;;;;;;;;;;5013185;28;20076;-81
2024/02/23 04:41:20;;;;;;;3.97;1.45;;;;;;;;;;5008969;28;20468;-79
2024/02/23 04:43:46;;;;;;;3.22;1.35;;;;;;;;;;4994806;28;20532;-79
2024/02/23 04:46:12;;;;;;;1.15;0.40;;;;;;;;;;5006109;28;20038;-81
2024/02/23 04:48:38;;;;;;;0.63;0.30;;;;;;;;;;5013393;28;20038;-82
2024/02/23 04:51:06;;;;;;;3.40;0.40;;;;;;;;;;5010163;28;20474;-81
2024/02/23 04:53:32;;;;;;;1.00;0.22;;;;;;;;;;5012184;28;20072;-82
2024/02/23 04:55:58;;;;;;;4.15;0.63;;;;;;;;;;5012795;28;20061;-81
2024/02/23 04:58:24;;;;;;;9.50;2.30;;;;;;;;;;5013626;28;20383;-81
2024/02/23 05:00:50;;;;;;;4.00;1.00;;;;;;;;;;5013278;28;20029;-81
2024/02/23 05:03:16;;;;;;;4.78;0.80;;;;;;;;;;5012673;28;20066;-81
2024/02/23 05:05:42;;;;;;;5.18;1.52;;;;;;;;;;5012138;28;20360;-81
2024/02/23 05:08:09;;;;;;;2.85;0.70;;;;;;;;;;5012897;28;20452;-81
2024/02/23 05:10:35;;;;;;;2.22;0.75;;;;;;;;;;5012747;28;20614;-81
2024/02/23 05:13:01;;;;;;;2.67;0.95;;;;;;;;;;5013076;28;20049;-82
2024/02/23 05:15:27;;;;;;;2.05;0.38;;;;;;;;;;5012670;28;20204;-81
2024/02/23 05:17:53;;;;;;;1.42;0.43;;;;;;;;;;5013194;28;20064;-81
2024/02/23 05:20:19;;;;;;;0.95;0.30;;;;;;;;;;5012712;28;20034;-81
2024/02/23 05:22:45;;;;;;;0.52;0.25;;;;;;;;;;5013492;28;20383;-81
2024/02/23 05:25:11;;;;;;;1.05;0.40;;;;;;;;;;5012032;28;20029;-81
2024/02/23 05:27:37;;;;;;;2.88;0.80;;;;;;;;;;5013200;28;20041;-81
2024/02/23 05:30:04;;;;;;;0.93;0.45;;;;;;;;;;5012105;28;20053;-81
2024/02/23 05:32:30;;;;;;;2.22;0.45;;;;;;;;;;4991651;28;20125;-81
2024/02/23 05:34:56;;;;;;;0.70;0.20;;;;;;;;;;4996459;28;20030;-81
2024/02/23 05:37:22;;;;;;;2.47;0.50;;;;;;;;;;4996901;28;20027;-81
2024/02/23 05:39:48;;;;;;;1.70;0.45;;;;;;;;;;4994532;28;20052;-81
2024/02/23 05:42:15;;;;;;;1.48;0.50;;;;;;;;;;5013139;28;20456;-81
2024/02/23 05:44:44;;;;;;;1.90;0.52;;;;;;;;;;5012595;28;20038;-81
2024/02/23 05:47:10;;;;;;;0.50;0.22;;;;;;;;;;5012772;28;20488;-81
2024/02/23 05:49:36;;;;;;;2.15;0.93;;;;;;;;;;5011354;28;20046;-81
2024/02/23 05:52:02;;;;;;;2.70;0.80;;;;;;;;;;5011971;28;20574;-81
2024/02/23 05:54:28;;;;;;;0.40;0.20;;;;;;;;;;5000271;28;20031;-79
2024/02/23 05:56:54;;;;;;;1.83;0.75;;;;;;;;;;5002885;28;20024;-79
2024/02/23 05:59:21;;;;;;;0.45;0.20;;;;;;;;;;5012813;28;20030;-79
2024/02/23 06:01:47;;;;;;;0.63;0.50;;;;;;;;;;5012648;28;20022;-79
2024/02/23 06:04:13;;;;;;;2.83;0.63;;;;;;;;;;5013485;28;20088;-81
2024/02/23 06:06:43;;;;;;;2.35;0.98;;;;;;;;;;5013354;28;20030;-81
2024/02/23 06:09:09;;;;;;;1.85;0.75;;;;;;;;;;4994076;28;20034;-81
2024/02/23 06:11:35;;;;;;;1.48;0.60;;;;;;;;;;4992711;28;20073;-81
2024/02/23 06:14:01;;;;;;;3.60;0.63;;;;;;;;;;5012482;28;20147;-81
2024/02/23 06:16:28;;;;;;;3.00;1.10;;;;;;;;;;5011710;28;20026;-80
2024/02/23 06:18:54;;;;;;;3.67;1.23;;;;;;;;;;5011704;28;20033;-80
2024/02/23 06:21:20;;;;;;;3.63;1.40;;;;;;;;;;5012110;28;20029;-79
2024/02/23 06:23:46;;;;;;;5.63;1.25;;;;;;;;;;5013148;28;20034;-80
2024/02/23 06:26:12;;;;;;;3.70;1.20;;;;;;;;;;5004195;28;20483;-79
2024/02/23 06:28:41;;;;;;;3.58;1.23;;;;;;;;;;5012684;28;20069;-80
2024/02/23 06:31:07;;;;;;;3.65;1.20;;;;;;;;;;5011719;28;20025;-79
2024/02/23 06:33:33;;;;;;;4.38;1.42;;;;;;;;;;4993489;28;20837;-80
2024/02/23 06:35:59;;;;;;;10.00;3.17;;;;;;;;;;5005081;28;20106;-79
2024/02/23 06:38:25;;;;;;;4.20;0.98;;;;;;;;;;5007326;28;20037;-80
2024/02/23 06:40:52;;;;;;;7.03;1.90;;;;;;;;;;5012176;28;20229;-79
2024/02/23 06:43:18;;;;;;;3.25;1.42;;;;;;;;;;5001258;28;20121;-79
2024/02/23 06:45:45;;;;;;;0.73;0.30;;;;;;;;;;5011238;28;20092;-80
2024/02/23 06:48:11;;;;;;;2.45;0.77;;;;;;;;;;5012606;28;20463;-78
2024/02/23 06:50:37;;;;;;;2.30;0.93;;;;;;;;;;5012637;28;20061;-81
2024/02/23 06:53:03;;;;;;;1.55;0.47;;;;;;;;;;5009839;28;20077;-80
2024/02/23 06:55:29;;;;;;;2.17;0.98;;;;;;;;;;5012380;28;20038;-81
2024/02/23 06:57:55;;;;;;;5.75;1.67;;;;;;;;;;5013821;28;20025;-85
2024/02/23 07:00:22;;;;;;;2.45;1.02;;;;;;;;;;5014570;28;20061;-83
2024/02/23 07:02:48;;;;;;;3.65;1.48;;;;;;;;;;5014459;28;20018;-83
2024/02/23 07:05:14;;;;;;;2.95;1.05;;;;;;;;;;5012655;28;20042;-81
2024/02/23 07:07:41;;;;;;;8.23;2.15;;;;;;;;;;5012643;28;20411;-82
2024/02/23 07:10:07;;;;;;;5.40;2.20;;;;;;;;;;5012831;28;20034;-81
2024/02/23 07:12:33;;;;;;;10.57;2.58;;;;;;;;;;5013293;28;20033;-81
2024/02/23 07:14:59;;;;;;;3.90;1.60;;;;;;;;;;5013661;28;20476;-82
2024/02/23 07:17:25;;;;;;;4.13;1.60;;;;;;;;;;5013645;28;20034;-81
2024/02/23 07:19:52;;;;;;;6.10;2.47;;;;;;;;;;5012259;28;20057;-81
2024/02/23 07:22:20;;;;;;;6.85;1.55;;;;;;;;;;5013054;28;20018;-81
2024/02/23 07:24:46;;;;;;;6.13;1.80;;;;;;;;;;5012744;28;20033;-81
2024/02/23 07:27:12;;;;;;;3.95;0.98;;;;;;;;;;5013502;28;20037;-82
2024/02/23 07:29:38;;;;;;;1.30;0.80;;;;;;;;;;5013596;28;20034;-81
2024/02/23 07:32:04;;;;;;;2.65;0.73;;;;;;;;;;5008511;28;20031;-78
2024/02/23 07:34:31;;;;;;;2.17;0.70;;;;;;;;;;5005542;28;20066;-81
2024/02/23 07:36:57;;;;;;;3.33;0.70;;;;;;;;;;4996474;28;20022;-81
2024/02/23 07:39:23;;;;;;;4.15;1.63;;;;;;;;;;4991353;28;20073;-81
2024/02/23 07:41:49;;;;;;;3.83;1.25;;;;;;;;;;4992257;28;20069;-81
2024/02/23 07:44:15;;;;;;;3.78;1.33;;;;;;;;;;5009711;28;20026;-80
2024/02/23 07:46:41;;;;;;;1.98;0.73;;;;;;;;;;5010204;28;20117;-80
2024/02/23 07:49:07;;;;;;;3.35;1.40;;;;;;;;;;5014047;28;20036;-80
2024/02/23 07:51:33;;;;;;;6.13;2.33;;;;;;;;;;5013729;28;20038;-80
2024/02/23 07:54:00;;;;;;;5.53;2.53;;;;;;;;;;5015329;28;20030;-81
2024/02/23 07:56:26;;;;;;;5.10;1.98;;;;;;;;;;5008179;28;20060;-81
2024/02/23 07:58:52;;;;;;;4.82;1.92;;;;;;;;;;5009955;28;20041;-81
2024/02/23 08:01:18;;;;;;;1.95;1.10;;;;;;;;;;5014661;28;20022;-80
2024/02/23 08:03:44;;;;;;;2.65;0.82;;;;;;;;;;5015098;28;20064;-84
2024/02/23 08:06:10;;;;;;;4.28;1.10;;;;;;;;;;5011582;28;20077;-81
2024/02/23 08:08:36;;;;;;;3.80;1.58;;;;;;;;;;5001155;28;20372;-81
2024/02/23 08:11:03;;;;;;;3.15;0.65;;;;;;;;;;5002639;28;20065;-81
2024/02/23 08:13:29;;;;;;;5.65;0.90;;;;;;;;;;5014671;28;20057;-81
2024/02/23 08:15:55;;;;;;;3.33;0.73;;;;;;;;;;5013642;28;20030;-81
2024/02/23 08:18:22;;;;;;;6.90;1.10;;;;;;;;;;5005851;28;20034;-82
2024/02/23 08:20:48;;;;;;;3.00;1.85;;;;;;;;;;5009635;28;20026;-82
2024/02/23 08:23:14;;;;;;;4.03;1.15;;;;;;;;;;5007640;28;20049;-81
2024/02/23 08:25:40;;;;;;;2.85;0.45;;;;;;;;;;4997244;28;20424;-84
2024/02/23 08:28:09;;;;;;;4.35;1.38;;;;;;;;;;5007973;28;20037;-84
2024/02/23 08:30:35;;;;;;;1.75;0.50;;;;;;;;;;5011769;28;20482;-81
2024/02/23 08:33:01;;;;;;;1.73;1.13;;;;;;;;;;5013357;28;20038;-82
2024/02/23 08:35:27;;;;;;;0.82;0.40;;;;;;;;;;5011956;28;20061;-80
2024/02/23 08:37:53;;;;;;;1.77;0.60;;;;;;;;;;5013583;28;20116;-80
2024/02/23 08:40:20;;;;;;;6.00;0.73;;;;;;;;;;4996857;28;20023;-82
2024/02/23 08:42:47;;;;;;;2.38;1.05;;;;;;;;;;5006732;28;20030;-81
2024/02/23 08:45:13;;;;;;;2.38;0.82;;;;;;;;;;5001537;28;20041;-82
2024/02/23 08:47:39;;;;;;;1.20;0.65;;;;;;;;;;5011722;28;20038;-82
2024/02/23 08:50:06;;;;;;;5.38;0.75;;;;;;;;;;5001694;28;20483;-81
2024/02/23 08:52:32;;;;;;;3.15;0.70;;;;;;;;;;5002760;28;20452;-81
2024/02/23 08:54:58;;;;;;;0.75;0.20;;;;;;;;;;5014194;28;20036;-82
2024/02/23 08:57:24;;;;;;;1.83;0.45;;;;;;;;;;5010978;28;20081;-83
2024/02/23 08:59:50;;;;;;;2.08;0.80;;;;;;;;;;4998150;28;20022;-82
2024/02/23 09:02:16;;;;;;;0.98;0.22;;;;;;;;;;5006888;28;20038;-81
2024/02/23 09:04:44;;;;;;;0.88;0.40;;;;;;;;;;5013160;28;20467;-81
2024/02/23 09:07:10;;;;;;;2.50;0.20;;;;;;;;;;5000421;28;20472;-83
2024/02/23 09:09:36;;;;;;;1.13;0.40;;;;;;;;;;5007939;28;20077;-83
2024/02/23 09:12:03;;;;;;;0.43;0.20;;;;;;;;;;5006762;28;20034;-82
2024/02/23 09:14:29;;;;;;;0.85;0.35;;;;;;;;;;5011732;28;20404;-82
2024/02/23 09:16:55;;;;;;;1.42;0.50;;;;;;;;;;5012859;28;20026;-82
2024/02/23 09:19:21;;;;;;;0.55;0.15;;;;;;;;;;4998260;28;20035;-82
2024/02/23 09:21:47;;;;;;;2.00;0.50;;;;;;;;;;5012452;28;20581;-84
2024/02/23 09:24:14;;;;;;;1.95;0.20;;;;;;;;;;5013280;28;20038;-84
2024/02/23 09:26:40;;;;;;;2.40;0.60;;;;;;;;;;5012500;28;20038;-83
2024/02/23 09:29:14;;;;;;;1.98;0.60;;;;;;;;;;5008061;28;20848;-84
2024/02/23 09:32:10;;;;;;;1.08;0.45;;;;;;;;;;4996829;28;20085;-86
2024/02/23 09:34:45;;;;;;;2.40;0.43;;;;;;;;;;4993661;28;20061;-86
2024/02/23 09:37:11;;;;;;;1.40;0.47;;;;;;;;;;5028380;28;20026;-83
2024/02/23 09:39:37;;;;;;;1.73;0.77;;;;;;;;;;5013265;28;20034;-84
2024/02/23 09:42:07;;;;;;;0.60;0.15;;;;;;;;;;5013548;28;20076;-84
2024/02/23 09:44:34;;;;;;;1.02;0.45;;;;;;;;;;5011255;28;20477;-83
2024/02/23 09:47:07;;;;;;;2.22;0.45;;;;;;;;;;5005493;28;20109;-83
2024/02/23 09:49:38;;;;;;;0.75;0.47;;;;;;;;;;5012537;28;20049;-84
2024/02/23 09:52:05;;;;;;;1.70;0.50;;;;;;;;;;5013846;28;20056;-84
2024/02/23 09:54:31;;;;;;;1.67;0.50;;;;;;;;;;5007620;28;20046;-84
2024/02/23 09:56:57;;;;;;;1.13;0.10;;;;;;;;;;5003986;28;20029;-83
2024/02/23 09:59:27;;;;;;;1.63;0.38;;;;;;;;;;4997431;28;20175;-85
2024/02/23 10:01:54;;;;;;;2.10;0.45;;;;;;;;;;5002102;28;20437;-83
2024/02/23 10:04:20;;;;;;;4.82;0.98;;;;;;;;;;5010214;28;20034;-82
2024/02/23 10:06:46;;;;;;;1.50;0.20;;;;;;;;;;5006364;28;20025;-85
2024/02/23 10:09:12;;;;;;;1.05;0.20;;;;;;;;;;5011205;28;20037;-83
2024/02/23 10:11:38;;;;;;;1.40;0.57;;;;;;;;;;5010824;28;20144;-82
2024/02/23 10:14:05;;;;;;;0.90;0.20;;;;;;;;;;5009162;28;20193;-83
2024/02/23 10:16:31;;;;;;;0.98;0.22;;;;;;;;;;5005135;28;20104;-84
2024/02/23 10:18:58;;;;;;;2.08;0.70;;;;;;;;;;5001807;28;20476;-84
2024/02/23 10:21:25;;;;;;;0.93;0.30;;;;;;;;;;5007919;28;20026;-85
2024/02/23 10:23:51;;;;;;;0.68;0.20;;;;;;;;;;5007151;28;20034;-83
2024/02/23 10:26:18;;;;;;;0.95;0.25;;;;;;;;;;4998587;28;20034;-84
2024/02/23 10:28:47;;;;;;;0.88;0.40;;;;;;;;;;5010662;28;20041;-84
2024/02/23 10:31:13;;;;;;;0.85;0.35;;;;;;;;;;5010504;28;20641;-83
2024/02/23 10:33:42;;;;;;;0.30;0.15;;;;;;;;;;4989496;28;20678;-85
2024/02/23 10:36:08;;;;;;;0.63;0.20;;;;;;;;;;4991791;28;20046;-85
2024/02/23 10:38:36;;;;;;;0.13;0.10;;;;;;;;;;5009214;28;20043;-85
2024/02/23 10:41:06;;;;;;;1.10;0.40;;;;;;;;;;5005883;28;20038;-87
2024/02/23 16:27:00;;;;;;;0.65;0.10;;;;;;;;;;2129233;24;20335;-84
2024/02/23 18:04:29;;;;;;;0.38;0.10;;;;;;;;;;5068955;24;20072;-83
2024/02/23 18:07:01;;;;;;;0.00;0.00;;;;;;;;;;4794387;29;20082;-83
2024/02/23 19:36:02;;;;;;;0.20;0.05;;;;;;;;;;4807691;29;20821;-83
